Dundee, Kansas
Current Conditions -  °F | °C
As of 12:15 PM on Friday 19 Dec 2014 (Local Time) from KGBD Reporting Station
Overcast Overcast  
Wind Chill: 26°   Ceiling: 1700
Heat Index: 34°   Visibility: 4mi
Dew Point: 28°   Wind: 10mph
Humidity: 81%   Direction: 200°SSW
Pressure: 30.2"   Gusts: NA
Location:  38.3903°N, 98.8296°W
Report Text: KGBD 191815Z AUTO 20009KT 4SM OVC017 01/M02 A3020 RMK AO1
Loading
Personal Weather Stations






























Interactive Weather Map New forecast layout! Learn more

10-Day Weather Forecast

Advertisements
Track Severe Weather on mobile